Time;durP1;ratioP1;P1;durP2;ratioP2;P2;SDS_P1;SDS_P2;PMS_P1;PMS_P2;Temp;Humidity;BMP_temperature;BMP_pressure;BME280_temperature;BME280_humidity;BME280_pressure;Samples;Min_cycle;Max_cycle;Signal;HPM_P1;HPM_P2
2021/09/20 00:02:00;;;;;;;32.38;23.27;;;;;;;;;;5063497;28;20042;-71
2021/09/20 00:04:26;;;;;;;34.67;23.63;;;;;;;;;;5071872;28;20063;-71
2021/09/20 00:06:52;;;;;;;34.72;22.40;;;;;;;;;;5072841;28;20032;-71
2021/09/20 00:09:18;;;;;;;29.80;21.25;;;;;;;;;;5069421;28;20081;-71
2021/09/20 00:11:44;;;;;;;30.88;22.20;;;;;;;;;;5053611;28;20071;-71
2021/09/20 00:14:10;;;;;;;34.35;23.77;;;;;;;;;;5066005;28;20036;-71
2021/09/20 00:16:36;;;;;;;31.50;22.08;;;;;;;;;;5071052;28;20028;-71
2021/09/20 00:19:02;;;;;;;33.95;23.58;;;;;;;;;;5067149;28;20023;-71
2021/09/20 00:21:28;;;;;;;32.33;23.48;;;;;;;;;;5065993;28;20074;-71
2021/09/20 00:23:54;;;;;;;37.28;23.05;;;;;;;;;;5067189;28;20028;-70
2021/09/20 00:26:20;;;;;;;30.98;21.75;;;;;;;;;;5068202;28;20094;-71
2021/09/20 00:28:46;;;;;;;29.90;21.35;;;;;;;;;;5063840;28;20021;-71
2021/09/20 00:31:12;;;;;;;32.58;20.92;;;;;;;;;;5067375;28;20028;-71
2021/09/20 00:33:38;;;;;;;31.08;21.55;;;;;;;;;;5067893;28;20048;-71
2021/09/20 00:36:05;;;;;;;29.02;19.38;;;;;;;;;;5068292;28;20028;-71
2021/09/20 00:38:31;;;;;;;32.80;20.25;;;;;;;;;;5067693;28;20149;-71
2021/09/20 00:40:57;;;;;;;27.73;18.73;;;;;;;;;;5066566;28;20029;-71
2021/09/20 00:43:23;;;;;;;25.48;18.52;;;;;;;;;;5068377;28;20027;-71
2021/09/20 00:45:49;;;;;;;27.05;19.08;;;;;;;;;;5066580;28;20039;-71
2021/09/20 00:48:15;;;;;;;27.92;19.20;;;;;;;;;;5059172;28;20472;-71
2021/09/20 00:50:41;;;;;;;25.77;16.92;;;;;;;;;;5067496;28;20120;-71
2021/09/20 00:53:07;;;;;;;25.60;16.85;;;;;;;;;;5054557;28;20024;-71
2021/09/20 00:55:33;;;;;;;25.77;18.15;;;;;;;;;;5068898;28;20525;-71
2021/09/20 00:57:59;;;;;;;25.02;15.63;;;;;;;;;;5066550;28;20042;-71
2021/09/20 01:00:26;;;;;;;26.00;18.90;;;;;;;;;;5069847;28;20490;-71
2021/09/20 01:02:52;;;;;;;22.75;16.30;;;;;;;;;;5069546;28;20060;-71
2021/09/20 01:05:18;;;;;;;24.00;15.85;;;;;;;;;;5069717;28;20032;-71
2021/09/20 01:07:44;;;;;;;26.58;17.88;;;;;;;;;;5068920;28;20544;-71
2021/09/20 01:10:11;;;;;;;25.55;17.52;;;;;;;;;;5063875;28;20086;-71
2021/09/20 01:12:37;;;;;;;28.00;17.23;;;;;;;;;;5053963;28;20024;-72
2021/09/20 01:15:04;;;;;;;27.13;17.13;;;;;;;;;;5065531;28;20032;-72
2021/09/20 01:17:30;;;;;;;26.92;16.17;;;;;;;;;;5064986;28;20047;-71
2021/09/20 01:19:56;;;;;;;27.02;16.83;;;;;;;;;;5061960;28;20036;-72
2021/09/20 01:22:23;;;;;;;24.55;14.57;;;;;;;;;;5059550;28;20029;-71
2021/09/20 01:24:49;;;;;;;25.40;15.43;;;;;;;;;;5065635;28;20025;-71
2021/09/20 01:27:16;;;;;;;25.48;16.70;;;;;;;;;;5057806;28;20118;-71
2021/09/20 01:29:43;;;;;;;30.30;17.55;;;;;;;;;;5067334;28;20052;-71
2021/09/20 01:32:09;;;;;;;28.35;16.23;;;;;;;;;;5064829;28;20071;-72
2021/09/20 01:34:35;;;;;;;25.15;15.32;;;;;;;;;;5066541;28;20101;-71
2021/09/20 01:37:01;;;;;;;27.70;16.02;;;;;;;;;;5067572;28;20024;-71
2021/09/20 01:39:30;;;;;;;26.08;16.13;;;;;;;;;;5065464;28;20107;-71
2021/09/20 01:41:57;;;;;;;28.90;17.48;;;;;;;;;;5067569;28;20033;-71
2021/09/20 01:44:23;;;;;;;23.15;16.23;;;;;;;;;;5063549;28;20074;-71
2021/09/20 01:46:50;;;;;;;28.40;17.40;;;;;;;;;;5068626;28;20032;-71
2021/09/20 01:49:16;;;;;;;26.55;15.68;;;;;;;;;;5064378;28;20043;-71
2021/09/20 01:51:43;;;;;;;31.98;19.95;;;;;;;;;;5070151;28;20025;-72
2021/09/20 01:54:09;;;;;;;26.08;16.48;;;;;;;;;;5064075;28;20031;-71
2021/09/20 01:56:35;;;;;;;27.05;17.00;;;;;;;;;;5065204;28;20025;-71
2021/09/20 01:59:02;;;;;;;24.67;16.33;;;;;;;;;;5062109;28;20471;-71
2021/09/20 02:01:28;;;;;;;27.27;16.92;;;;;;;;;;5068580;28;20029;-71
2021/09/20 02:03:54;;;;;;;29.88;17.90;;;;;;;;;;5066461;28;20063;-71
2021/09/20 02:06:21;;;;;;;28.75;17.15;;;;;;;;;;5066035;28;20021;-71
2021/09/20 02:08:48;;;;;;;26.58;17.50;;;;;;;;;;5066509;28;20044;-71
2021/09/20 02:11:14;;;;;;;27.10;16.02;;;;;;;;;;5066183;28;20484;-71
2021/09/20 02:13:40;;;;;;;26.45;16.92;;;;;;;;;;5067794;28;20037;-71
2021/09/20 02:16:06;;;;;;;24.23;16.45;;;;;;;;;;5066384;28;20057;-71
2021/09/20 02:18:32;;;;;;;26.10;16.73;;;;;;;;;;5049059;28;20021;-71
2021/09/20 02:20:59;;;;;;;28.70;18.73;;;;;;;;;;5067142;28;20025;-71
2021/09/20 02:23:25;;;;;;;29.95;19.08;;;;;;;;;;5049835;28;20491;-71
2021/09/20 02:25:51;;;;;;;29.33;19.58;;;;;;;;;;5065591;28;20028;-71
2021/09/20 02:28:17;;;;;;;30.65;18.38;;;;;;;;;;5064577;28;20020;-71
2021/09/20 02:30:43;;;;;;;30.40;18.33;;;;;;;;;;5065867;28;20039;-71
2021/09/20 02:33:09;;;;;;;29.52;18.05;;;;;;;;;;5069093;28;20025;-71
2021/09/20 02:35:35;;;;;;;26.80;17.00;;;;;;;;;;5070827;28;20052;-71
2021/09/20 02:38:01;;;;;;;29.45;18.45;;;;;;;;;;5049640;28;20021;-71
2021/09/20 02:40:27;;;;;;;29.42;17.20;;;;;;;;;;5072115;28;20040;-71
2021/09/20 02:42:53;;;;;;;31.50;20.08;;;;;;;;;;5071960;28;20028;-71
2021/09/20 02:45:19;;;;;;;31.15;19.25;;;;;;;;;;5061949;28;20029;-71
2021/09/20 02:47:45;;;;;;;30.30;18.70;;;;;;;;;;5068742;28;20029;-71
2021/09/20 02:50:12;;;;;;;35.20;19.77;;;;;;;;;;5061309;28;20032;-71
2021/09/20 02:52:39;;;;;;;29.25;18.25;;;;;;;;;;5073342;28;20031;-71
2021/09/20 02:55:06;;;;;;;28.60;18.70;;;;;;;;;;5070977;28;20533;-71
2021/09/20 02:57:32;;;;;;;29.75;18.80;;;;;;;;;;5067558;28;20054;-71
2021/09/20 02:59:58;;;;;;;28.35;18.17;;;;;;;;;;5062026;28;20024;-71
2021/09/20 03:02:24;;;;;;;30.20;19.63;;;;;;;;;;5070915;28;20474;-71
2021/09/20 03:04:50;;;;;;;27.20;19.27;;;;;;;;;;5072333;28;20044;-71
2021/09/20 03:07:16;;;;;;;27.55;18.02;;;;;;;;;;5067044;28;20033;-71
2021/09/20 03:09:42;;;;;;;35.13;20.67;;;;;;;;;;5059621;28;20100;-71
2021/09/20 03:12:08;;;;;;;28.35;18.55;;;;;;;;;;5065129;28;20043;-71
2021/09/20 03:14:34;;;;;;;32.53;19.65;;;;;;;;;;5070126;28;20029;-71
2021/09/20 03:17:01;;;;;;;31.73;19.00;;;;;;;;;;5061947;28;20071;-71
2021/09/20 03:19:27;;;;;;;29.25;19.60;;;;;;;;;;5063083;28;20108;-71
2021/09/20 03:21:53;;;;;;;29.83;19.33;;;;;;;;;;5054606;28;20550;-71
2021/09/20 03:24:19;;;;;;;28.50;18.73;;;;;;;;;;5057302;28;20033;-71
2021/09/20 03:26:45;;;;;;;32.67;20.15;;;;;;;;;;5065235;28;20052;-71
2021/09/20 03:29:11;;;;;;;36.20;20.42;;;;;;;;;;5064996;28;20111;-72
2021/09/20 03:31:37;;;;;;;30.58;18.88;;;;;;;;;;5071115;28;20032;-71
2021/09/20 03:34:03;;;;;;;33.47;20.15;;;;;;;;;;5059907;28;20102;-71
2021/09/20 03:36:29;;;;;;;32.47;20.10;;;;;;;;;;5067211;28;20033;-71
2021/09/20 03:38:55;;;;;;;38.40;21.70;;;;;;;;;;5057838;28;20079;-72
2021/09/20 03:41:21;;;;;;;36.13;19.67;;;;;;;;;;5069598;28;20119;-72
2021/09/20 03:43:47;;;;;;;36.83;23.42;;;;;;;;;;5055604;28;20025;-71
2021/09/20 03:46:14;;;;;;;36.70;21.85;;;;;;;;;;5061632;28;20028;-71
2021/09/20 03:48:40;;;;;;;36.67;21.88;;;;;;;;;;5065530;28;20514;-71
2021/09/20 03:51:06;;;;;;;37.05;23.13;;;;;;;;;;5068710;28;20020;-71
2021/09/20 03:53:33;;;;;;;36.72;22.40;;;;;;;;;;5070547;28;20024;-71
2021/09/20 03:55:59;;;;;;;37.30;22.08;;;;;;;;;;5064560;28;20501;-71
2021/09/20 03:58:25;;;;;;;32.83;20.52;;;;;;;;;;5069829;28;20023;-71
2021/09/20 04:00:51;;;;;;;38.28;22.90;;;;;;;;;;5069392;28;20474;-71
2021/09/20 04:03:17;;;;;;;36.15;21.48;;;;;;;;;;5070989;28;20108;-71
2021/09/20 04:05:43;;;;;;;38.45;22.90;;;;;;;;;;5072186;28;20040;-71
2021/09/20 04:08:12;;;;;;;32.50;21.40;;;;;;;;;;5056365;28;20506;-71
2021/09/20 04:10:38;;;;;;;36.92;22.60;;;;;;;;;;5063581;28;20027;-71
2021/09/20 04:13:04;;;;;;;33.65;22.23;;;;;;;;;;5067190;28;20111;-71
2021/09/20 04:15:31;;;;;;;32.78;21.00;;;;;;;;;;5060583;28;20028;-71
2021/09/20 04:17:57;;;;;;;34.63;22.50;;;;;;;;;;5047737;28;20120;-71
2021/09/20 04:20:23;;;;;;;36.15;23.23;;;;;;;;;;5061699;28;20078;-71
2021/09/20 04:22:49;;;;;;;34.17;20.77;;;;;;;;;;5061068;28;20029;-71
2021/09/20 04:25:15;;;;;;;32.90;21.52;;;;;;;;;;5067784;28;20033;-71
2021/09/20 04:27:41;;;;;;;34.17;20.30;;;;;;;;;;5061548;28;20111;-71
2021/09/20 04:30:07;;;;;;;34.60;22.25;;;;;;;;;;5069797;28;20075;-71
2021/09/20 04:32:33;;;;;;;32.90;20.23;;;;;;;;;;5066902;28;20485;-71
2021/09/20 04:34:59;;;;;;;35.47;22.98;;;;;;;;;;5069641;28;20043;-71
2021/09/20 04:37:25;;;;;;;33.25;21.00;;;;;;;;;;5065406;28;20208;-71
2021/09/20 04:39:51;;;;;;;37.25;22.67;;;;;;;;;;5069426;28;20427;-71
2021/09/20 04:42:17;;;;;;;40.38;22.73;;;;;;;;;;5065053;28;20493;-71
2021/09/20 04:44:44;;;;;;;31.15;20.73;;;;;;;;;;5067343;28;20119;-71
2021/09/20 04:47:10;;;;;;;39.78;23.58;;;;;;;;;;5073366;28;20620;-72
2021/09/20 04:49:36;;;;;;;34.60;21.25;;;;;;;;;;5070679;28;20028;-71
2021/09/20 04:52:02;;;;;;;33.85;22.40;;;;;;;;;;5076694;28;20035;-71
2021/09/20 04:54:28;;;;;;;37.08;21.08;;;;;;;;;;5070427;28;20029;-71
2021/09/20 04:56:54;;;;;;;34.38;22.27;;;;;;;;;;5075253;28;20489;-71
2021/09/20 04:59:20;;;;;;;33.50;20.58;;;;;;;;;;5068042;28;20030;-71
2021/09/20 05:01:46;;;;;;;38.30;22.35;;;;;;;;;;5068799;28;20028;-71
2021/09/20 05:04:14;;;;;;;37.13;21.17;;;;;;;;;;5070651;28;20070;-71
2021/09/20 05:06:40;;;;;;;33.70;20.60;;;;;;;;;;5069269;28;20020;-71
2021/09/20 05:09:09;;;;;;;36.35;22.63;;;;;;;;;;5063366;28;20097;-71
2021/09/20 05:11:35;;;;;;;33.45;21.75;;;;;;;;;;5066676;28;20498;-71
2021/09/20 05:14:02;;;;;;;36.03;20.98;;;;;;;;;;5065871;28;20029;-71
2021/09/20 05:16:28;;;;;;;33.55;20.98;;;;;;;;;;5067470;28;20558;-71
2021/09/20 05:18:54;;;;;;;32.22;19.88;;;;;;;;;;5061387;28;20486;-70
2021/09/20 05:21:20;;;;;;;37.00;21.02;;;;;;;;;;5065196;28;20482;-71
2021/09/20 05:23:47;;;;;;;36.72;21.33;;;;;;;;;;5076929;28;20486;-72
2021/09/20 05:26:13;;;;;;;34.55;21.65;;;;;;;;;;5071144;28;20070;-72
2021/09/20 05:28:40;;;;;;;33.45;20.15;;;;;;;;;;5069395;28;20372;-72
2021/09/20 05:31:06;;;;;;;32.42;20.52;;;;;;;;;;5070140;28;20082;-71
2021/09/20 05:33:34;;;;;;;31.85;19.95;;;;;;;;;;5058654;28;20075;-72
2021/09/20 05:36:01;;;;;;;31.42;18.92;;;;;;;;;;5052874;28;20125;-71
2021/09/20 05:38:27;;;;;;;32.50;19.08;;;;;;;;;;5067527;28;20021;-72
2021/09/20 05:40:53;;;;;;;30.27;17.77;;;;;;;;;;5069389;28;20024;-71
2021/09/20 05:43:19;;;;;;;36.05;21.33;;;;;;;;;;5070331;28;20032;-71
2021/09/20 05:45:45;;;;;;;29.33;18.98;;;;;;;;;;5065851;28;20048;-72
2021/09/20 05:48:11;;;;;;;32.30;20.05;;;;;;;;;;5067276;28;20451;-72
2021/09/20 05:50:39;;;;;;;26.15;16.60;;;;;;;;;;5079342;28;20020;-72
2021/09/20 05:53:05;;;;;;;31.30;17.60;;;;;;;;;;5076269;28;20024;-72
2021/09/20 05:55:31;;;;;;;27.65;17.60;;;;;;;;;;5067347;28;20039;-72
2021/09/20 05:57:57;;;;;;;27.77;16.05;;;;;;;;;;5062090;28;20115;-72
2021/09/20 06:00:23;;;;;;;23.73;16.52;;;;;;;;;;5068037;28;20025;-72
2021/09/20 06:02:49;;;;;;;26.13;16.67;;;;;;;;;;5069038;28;20020;-71
2021/09/20 06:05:16;;;;;;;26.92;17.20;;;;;;;;;;5068760;28;20486;-72
2021/09/20 06:07:42;;;;;;;21.92;14.60;;;;;;;;;;5069201;28;20025;-72
2021/09/20 06:10:08;;;;;;;26.70;16.27;;;;;;;;;;5069233;28;20027;-72
2021/09/20 06:12:34;;;;;;;28.13;17.05;;;;;;;;;;5072266;28;20179;-71
2021/09/20 06:15:00;;;;;;;29.98;16.08;;;;;;;;;;5072417;28;20024;-72
2021/09/20 06:17:26;;;;;;;25.30;16.23;;;;;;;;;;5069892;28;20115;-72
2021/09/20 06:19:52;;;;;;;25.17;16.10;;;;;;;;;;5072204;28;20060;-72
2021/09/20 06:22:18;;;;;;;23.70;15.75;;;;;;;;;;5057905;28;20037;-72
2021/09/20 06:24:45;;;;;;;24.15;14.63;;;;;;;;;;5069140;28;20568;-72
2021/09/20 06:27:11;;;;;;;28.90;16.13;;;;;;;;;;5069297;28;20054;-72
2021/09/20 06:29:37;;;;;;;22.27;13.57;;;;;;;;;;5071638;28;20032;-72
2021/09/20 06:32:03;;;;;;;26.13;15.50;;;;;;;;;;5073200;28;20028;-72
2021/09/20 06:34:29;;;;;;;22.08;13.63;;;;;;;;;;5072992;28;20177;-72
2021/09/20 06:36:55;;;;;;;21.10;12.60;;;;;;;;;;5071954;28;20076;-72
2021/09/20 06:39:21;;;;;;;22.95;12.57;;;;;;;;;;5069315;28;20053;-72
2021/09/20 06:41:47;;;;;;;21.15;12.93;;;;;;;;;;5073618;28;20162;-72
2021/09/20 06:44:13;;;;;;;18.33;11.75;;;;;;;;;;5073746;28;20063;-72
2021/09/20 06:46:39;;;;;;;18.05;10.38;;;;;;;;;;5073467;28;20033;-72
2021/09/20 06:49:05;;;;;;;16.20;9.73;;;;;;;;;;5070389;28;20020;-72
2021/09/20 06:51:32;;;;;;;14.52;9.77;;;;;;;;;;5061617;28;20021;-71
2021/09/20 06:53:58;;;;;;;18.60;11.05;;;;;;;;;;5068846;28;20032;-72
2021/09/20 06:56:24;;;;;;;19.27;9.65;;;;;;;;;;5072111;28;20021;-72
2021/09/20 06:58:50;;;;;;;14.48;9.05;;;;;;;;;;5070176;28;20032;-72
2021/09/20 07:01:16;;;;;;;15.48;9.50;;;;;;;;;;5073196;28;20107;-72
2021/09/20 07:03:43;;;;;;;14.40;8.95;;;;;;;;;;5072970;28;20078;-72
2021/09/20 07:06:09;;;;;;;15.60;9.02;;;;;;;;;;5079443;28;20024;-72
2021/09/20 07:08:35;;;;;;;17.33;9.88;;;;;;;;;;5068841;28;20017;-72
2021/09/20 07:11:01;;;;;;;15.38;8.52;;;;;;;;;;5073184;28;20025;-72
2021/09/20 07:13:27;;;;;;;15.65;9.70;;;;;;;;;;5073081;28;20024;-72
2021/09/20 07:15:53;;;;;;;16.30;10.13;;;;;;;;;;5073030;28;20551;-72
2021/09/20 07:18:19;;;;;;;14.85;9.07;;;;;;;;;;5069755;28;20511;-72
2021/09/20 07:20:46;;;;;;;16.05;9.23;;;;;;;;;;5066198;28;20021;-72
2021/09/20 07:23:12;;;;;;;14.65;8.98;;;;;;;;;;5061830;28;20047;-72
2021/09/20 07:25:39;;;;;;;16.35;9.23;;;;;;;;;;5071271;28;20028;-72
2021/09/20 07:28:05;;;;;;;15.82;9.75;;;;;;;;;;5056572;28;20013;-73
2021/09/20 07:30:32;;;;;;;14.85;8.93;;;;;;;;;;5052713;28;20025;-72
2021/09/20 07:32:59;;;;;;;15.15;8.98;;;;;;;;;;5052976;28;20040;-72
2021/09/20 07:35:25;;;;;;;15.93;9.88;;;;;;;;;;5052439;28;20427;-72
2021/09/20 07:37:52;;;;;;;16.80;9.55;;;;;;;;;;5065520;28;20078;-72
2021/09/20 07:40:18;;;;;;;16.67;9.73;;;;;;;;;;5072424;28;20053;-72
2021/09/20 07:42:44;;;;;;;15.70;8.98;;;;;;;;;;5062235;28;20052;-72
2021/09/20 07:45:11;;;;;;;16.85;9.88;;;;;;;;;;5054830;28;20033;-72
2021/09/20 07:47:37;;;;;;;14.80;8.35;;;;;;;;;;5069182;28;20024;-72
2021/09/20 07:50:04;;;;;;;17.35;9.68;;;;;;;;;;5072385;28;20040;-72
2021/09/20 07:52:31;;;;;;;16.38;9.48;;;;;;;;;;5057386;28;20533;-72
2021/09/20 07:54:57;;;;;;;15.68;9.85;;;;;;;;;;5067173;28;20051;-72
2021/09/20 07:57:24;;;;;;;18.77;11.05;;;;;;;;;;5059396;28;20029;-72
2021/09/20 07:59:50;;;;;;;15.55;9.98;;;;;;;;;;5053183;28;20048;-72
2021/09/20 08:02:16;;;;;;;17.00;10.85;;;;;;;;;;5071997;28;20062;-72
2021/09/20 08:04:42;;;;;;;15.15;9.52;;;;;;;;;;5071594;28;20040;-72
2021/09/20 08:07:08;;;;;;;20.67;10.48;;;;;;;;;;5075365;28;20028;-72
2021/09/20 08:09:34;;;;;;;19.15;11.35;;;;;;;;;;5070921;28;20020;-73
2021/09/20 08:12:00;;;;;;;18.45;10.30;;;;;;;;;;5070275;28;20025;-72
2021/09/20 08:14:26;;;;;;;17.63;10.63;;;;;;;;;;5071879;28;20519;-72
2021/09/20 08:16:52;;;;;;;20.45;11.30;;;;;;;;;;5070326;28;20494;-72
2021/09/20 08:19:19;;;;;;;19.52;10.95;;;;;;;;;;5068661;28;20123;-73
2021/09/20 08:21:45;;;;;;;18.05;10.98;;;;;;;;;;5065045;28;20060;-72
2021/09/20 08:24:11;;;;;;;20.40;11.63;;;;;;;;;;5051995;28;20033;-72
2021/09/20 08:26:37;;;;;;;19.27;12.43;;;;;;;;;;5057235;28;20035;-72
2021/09/20 08:29:04;;;;;;;16.50;10.88;;;;;;;;;;5068045;28;20402;-73
2021/09/20 08:31:30;;;;;;;21.58;12.48;;;;;;;;;;5069960;28;20471;-73
2021/09/20 08:33:56;;;;;;;19.10;10.77;;;;;;;;;;5071380;28;20027;-71
2021/09/20 08:36:22;;;;;;;17.73;10.70;;;;;;;;;;5071762;28;20024;-72
2021/09/20 08:38:48;;;;;;;16.55;10.90;;;;;;;;;;5068201;28;20045;-72
2021/09/20 08:41:15;;;;;;;16.55;11.15;;;;;;;;;;5071281;28;20086;-72
2021/09/20 08:43:42;;;;;;;17.63;10.90;;;;;;;;;;5071387;28;20044;-72
2021/09/20 08:46:08;;;;;;;17.27;10.45;;;;;;;;;;5070990;28;20028;-72
2021/09/20 08:48:44;;;;;;;17.75;11.15;;;;;;;;;;5068373;28;20019;-72
2021/09/20 08:51:11;;;;;;;19.85;12.32;;;;;;;;;;5060761;28;20488;-72
2021/09/20 08:53:38;;;;;;;19.17;12.77;;;;;;;;;;5051655;28;20058;-72
2021/09/20 08:56:04;;;;;;;20.38;11.35;;;;;;;;;;5053415;28;20031;-72
2021/09/20 08:58:30;;;;;;;23.98;11.75;;;;;;;;;;5068029;28;20021;-72
2021/09/20 09:00:57;;;;;;;22.73;12.55;;;;;;;;;;5071250;28;20410;-72
2021/09/20 09:03:23;;;;;;;18.73;11.52;;;;;;;;;;5071002;28;20053;-72
2021/09/20 09:05:50;;;;;;;19.63;11.05;;;;;;;;;;5070117;28;20032;-72
2021/09/20 09:08:18;;;;;;;20.50;10.32;;;;;;;;;;5067157;28;20032;-72
2021/09/20 09:10:45;;;;;;;17.65;11.45;;;;;;;;;;5071118;28;20394;-72
2021/09/20 09:13:13;;;;;;;20.88;11.80;;;;;;;;;;5070818;28;20020;-72
2021/09/20 09:15:39;;;;;;;18.90;11.48;;;;;;;;;;5070880;28;20554;-72
2021/09/20 09:18:06;;;;;;;20.13;12.10;;;;;;;;;;5067881;28;20032;-72
2021/09/20 09:20:33;;;;;;;20.33;11.50;;;;;;;;;;5070688;28;20026;-72
2021/09/20 09:23:07;;;;;;;17.90;11.50;;;;;;;;;;5053696;28;20033;-72
2021/09/20 09:25:36;;;;;;;21.52;12.50;;;;;;;;;;5050819;28;20025;-72
2021/09/20 09:28:03;;;;;;;16.90;11.57;;;;;;;;;;5059292;28;20029;-72
2021/09/20 09:30:30;;;;;;;16.75;10.98;;;;;;;;;;5051032;28;20166;-72
2021/09/20 09:33:05;;;;;;;19.88;11.05;;;;;;;;;;5050686;28;20108;-72
2021/09/20 09:35:32;;;;;;;16.98;11.50;;;;;;;;;;5050677;28;20096;-73
2021/09/20 09:38:01;;;;;;;17.90;10.95;;;;;;;;;;5047600;28;20032;-72
2021/09/20 09:40:27;;;;;;;20.92;10.93;;;;;;;;;;5069488;28;20123;-73
2021/09/20 09:42:58;;;;;;;14.55;9.85;;;;;;;;;;5073237;28;20479;-72
2021/09/20 09:45:25;;;;;;;;;;;;;;;;;;5070541;28;20083;-72
2021/09/20 09:48:04;;;;;;;18.45;10.25;;;;;;;;;;5051504;28;19905;-72
2021/09/20 09:50:30;;;;;;;14.90;9.43;;;;;;;;;;5063739;28;20021;-72
2021/09/20 09:52:56;;;;;;;14.23;9.70;;;;;;;;;;5054378;28;20049;-72
2021/09/20 09:55:24;;;;;;;16.52;9.93;;;;;;;;;;5054350;28;20601;-72
2021/09/20 09:57:50;;;;;;;17.08;10.73;;;;;;;;;;5068822;28;20185;-72
2021/09/20 10:00:21;;;;;;;17.17;10.13;;;;;;;;;;5073073;28;20020;-72
2021/09/20 10:02:51;;;;;;;14.63;9.63;;;;;;;;;;5074497;28;20062;-73
2021/09/20 10:05:21;;;;;;;15.63;10.25;;;;;;;;;;5073074;28;20040;-72
2021/09/20 10:07:51;;;;;;;17.77;11.25;;;;;;;;;;5076465;28;20028;-72
2021/09/20 10:10:19;;;;;;;15.90;9.55;;;;;;;;;;5074191;28;20107;-72
2021/09/20 10:12:46;;;;;;;15.07;10.82;;;;;;;;;;5074043;28;20021;-72
2021/09/20 10:15:20;;;;;;;13.52;9.98;;;;;;;;;;5074239;28;20021;-72
2021/09/20 10:17:46;;;;;;;13.43;9.57;;;;;;;;;;5070981;28;20039;-72
2021/09/20 10:20:17;;;;;;;14.25;9.68;;;;;;;;;;5072091;28;20028;-72
2021/09/20 10:22:43;;;;;;;13.70;8.35;;;;;;;;;;5064078;28;20040;-72
2021/09/20 10:25:10;;;;;;;16.52;10.30;;;;;;;;;;5053878;28;20259;-72
2021/09/20 10:27:36;;;;;;;11.38;8.23;;;;;;;;;;5063404;28;20028;-72
2021/09/20 10:30:06;;;;;;;12.02;8.68;;;;;;;;;;5073939;28;20029;-72
2021/09/20 10:32:33;;;;;;;12.02;8.50;;;;;;;;;;5073641;28;20407;-72
2021/09/20 10:35:18;;;;;;;13.18;8.93;;;;;;;;;;5072394;28;20032;-72
2021/09/20 10:37:44;;;;;;;15.18;9.45;;;;;;;;;;5070938;28;20028;-72
2021/09/20 10:40:11;;;;;;;12.65;9.27;;;;;;;;;;5072226;28;20198;-72
2021/09/20 10:42:37;;;;;;;12.20;8.90;;;;;;;;;;5072565;28;20067;-72
2021/09/20 10:45:04;;;;;;;15.45;8.63;;;;;;;;;;5072284;28;20032;-72
2021/09/20 10:47:43;;;;;;;14.93;8.68;;;;;;;;;;5069757;28;20254;-73
2021/09/20 10:50:10;;;;;;;16.77;9.65;;;;;;;;;;5055792;28;20049;-72
2021/09/20 10:52:36;;;;;;;13.30;9.05;;;;;;;;;;5051960;28;20032;-72
2021/09/20 10:55:02;;;;;;;17.13;9.73;;;;;;;;;;5052222;28;20024;-72
2021/09/20 10:57:28;;;;;;;12.65;8.55;;;;;;;;;;5063754;28;20024;-72
2021/09/20 11:00:14;;;;;;;14.73;9.38;;;;;;;;;;5056354;28;20506;-72
2021/09/20 11:02:40;;;;;;;14.10;9.40;;;;;;;;;;5052001;28;20021;-72
2021/09/20 11:05:07;;;;;;;15.50;8.82;;;;;;;;;;5064171;28;20047;-72
2021/09/20 11:07:46;;;;;;;12.82;8.35;;;;;;;;;;5075352;28;20033;-72
2021/09/20 11:10:13;;;;;;;14.73;9.82;;;;;;;;;;5071665;28;20103;-71
2021/09/20 11:12:55;;;;;;;13.52;8.07;;;;;;;;;;5071981;28;20023;-73
2021/09/20 11:15:22;;;;;;;12.52;9.32;;;;;;;;;;5070731;28;20031;-71
2021/09/20 11:17:49;;;;;;;13.43;9.75;;;;;;;;;;5069143;28;20021;-72
2021/09/20 11:20:17;;;;;;;11.73;8.95;;;;;;;;;;5071544;28;20510;-72
2021/09/20 11:22:43;;;;;;;13.90;9.60;;;;;;;;;;5063687;28;20094;-72
2021/09/20 11:25:15;;;;;;;14.85;9.57;;;;;;;;;;5071299;28;20043;-72
2021/09/20 11:27:41;;;;;;;;;;;;;;;;;;5069191;28;20028;-72
2021/09/20 11:30:21;;;;;;;12.98;9.23;;;;;;;;;;5071469;28;19904;-72
2021/09/20 11:32:48;;;;;;;12.77;9.00;;;;;;;;;;5071770;28;20016;-72
2021/09/20 11:35:15;;;;;;;16.77;10.20;;;;;;;;;;5069845;28;20025;-73
2021/09/20 11:37:41;;;;;;;15.23;9.95;;;;;;;;;;5068912;28;20024;-72
2021/09/20 11:40:08;;;;;;;18.33;10.15;;;;;;;;;;5032859;28;1119479;-73
2021/09/20 11:42:37;;;;;;;17.55;9.45;;;;;;;;;;5079742;28;20020;-71
2021/09/20 11:45:06;;;;;;;12.82;8.57;;;;;;;;;;5091368;28;20020;-72
2021/09/20 11:47:35;;;;;;;14.57;8.73;;;;;;;;;;5069562;28;20040;-72
2021/09/20 11:50:01;;;;;;;15.18;9.38;;;;;;;;;;5070617;28;20486;-72
2021/09/20 11:52:35;;;;;;;15.65;10.15;;;;;;;;;;5071454;28;20096;-71
2021/09/20 11:55:01;;;;;;;16.83;9.65;;;;;;;;;;5058257;28;20021;-73
2021/09/20 11:57:31;;;;;;;14.88;9.82;;;;;;;;;;5063734;28;20677;-73
2021/09/20 11:59:58;;;;;;;14.15;9.70;;;;;;;;;;5071759;28;20032;-72
2021/09/20 12:02:47;;;;;;;13.73;9.95;;;;;;;;;;5065645;28;20032;-72
2021/09/20 12:05:36;;;;;;;13.38;8.80;;;;;;;;;;5056550;28;20132;-73
2021/09/20 12:08:10;;;;;;;14.43;9.80;;;;;;;;;;5055694;28;20044;-72
2021/09/20 12:10:40;;;;;;;13.70;9.70;;;;;;;;;;5051837;28;20037;-73
2021/09/20 12:13:12;;;;;;;16.60;10.40;;;;;;;;;;5059671;28;20028;-72
2021/09/20 12:15:39;;;;;;;14.98;9.85;;;;;;;;;;5070571;28;20025;-72
2021/09/20 12:18:06;;;;;;;13.95;9.98;;;;;;;;;;5068173;28;20619;-72
2021/09/20 12:20:58;;;;;;;14.07;9.82;;;;;;;;;;5071667;28;20040;-72
2021/09/20 12:23:24;;;;;;;;;;;;;;;;;;5049452;28;20033;-73
2021/09/20 12:25:58;;;;;;;13.43;8.45;;;;;;;;;;5054612;28;19908;-73
2021/09/20 12:28:27;;;;;;;16.75;10.82;;;;;;;;;;5046976;28;20025;-72
2021/09/20 12:30:53;;;;;;;14.73;10.63;;;;;;;;;;5064859;28;20027;-72
2021/09/20 12:33:19;;;;;;;15.40;11.27;;;;;;;;;;5070841;28;20021;-72
2021/09/20 12:35:45;;;;;;;14.70;9.93;;;;;;;;;;5078258;28;20024;-72
2021/09/20 12:38:14;;;;;;;17.65;10.52;;;;;;;;;;5069658;28;20529;-71
2021/09/20 12:40:40;;;;;;;15.68;11.02;;;;;;;;;;5070759;28;20074;-72
2021/09/20 12:43:11;;;;;;;18.80;11.55;;;;;;;;;;5070478;28;20486;-72
2021/09/20 12:45:39;;;;;;;17.00;11.00;;;;;;;;;;5059199;28;20514;-72
2021/09/20 12:48:06;;;;;;;19.65;11.40;;;;;;;;;;5064481;28;20100;-73
2021/09/20 12:50:42;;;;;;;13.30;10.23;;;;;;;;;;5067537;28;20033;-72
2021/09/20 12:53:08;;;;;;;15.45;10.52;;;;;;;;;;5070286;28;20017;-73
2021/09/20 12:55:39;;;;;;;15.88;11.55;;;;;;;;;;5070340;28;20052;-72
2021/09/20 12:58:08;;;;;;;14.27;11.15;;;;;;;;;;5066612;28;20044;-72
2021/09/20 13:00:36;;;;;;;16.05;10.60;;;;;;;;;;5068491;28;20104;-73
2021/09/20 13:03:07;;;;;;;25.77;11.35;;;;;;;;;;5066245;28;20024;-72
2021/09/20 13:05:40;;;;;;;15.57;9.80;;;;;;;;;;5072668;28;20028;-72
2021/09/20 13:08:06;;;;;;;15.10;9.65;;;;;;;;;;5065552;28;20024;-73
2021/09/20 13:10:33;;;;;;;16.90;11.18;;;;;;;;;;5070135;28;20056;-72
2021/09/20 13:12:59;;;;;;;18.13;11.55;;;;;;;;;;5070150;28;20137;-74
2021/09/20 13:15:26;;;;;;;16.02;10.40;;;;;;;;;;5069980;28;20035;-72
2021/09/20 13:17:54;;;;;;;13.70;10.00;;;;;;;;;;5067580;28;20028;-72
2021/09/20 13:20:24;;;;;;;13.38;9.70;;;;;;;;;;5070480;28;20032;-72
2021/09/20 13:22:54;;;;;;;15.95;10.57;;;;;;;;;;5055024;28;20021;-72
2021/09/20 13:25:46;;;;;;;15.10;10.32;;;;;;;;;;5050741;28;20029;-72
2021/09/20 13:28:12;;;;;;;;;;;;;;;;;;5054606;28;20048;-72
2021/09/20 13:30:39;;;;;;;14.50;11.00;;;;;;;;;;5052935;28;19932;-72
2021/09/20 13:33:05;;;;;;;14.73;10.52;;;;;;;;;;5054106;28;20017;-72
2021/09/20 13:35:33;;;;;;;14.57;10.25;;;;;;;;;;5067905;28;20043;-72
2021/09/20 13:37:59;;;;;;;15.45;10.75;;;;;;;;;;5061867;28;20052;-72
2021/09/20 13:40:25;;;;;;;16.67;11.75;;;;;;;;;;5059438;28;20072;-73
2021/09/20 13:42:52;;;;;;;16.25;11.57;;;;;;;;;;5049150;28;20544;-72
2021/09/20 13:45:18;;;;;;;15.63;10.60;;;;;;;;;;5053584;28;20016;-72
2021/09/20 13:47:44;;;;;;;16.38;10.60;;;;;;;;;;5059003;28;20032;-72
2021/09/20 13:50:12;;;;;;;14.52;11.40;;;;;;;;;;5064728;28;20483;-72
2021/09/20 13:52:39;;;;;;;16.75;10.52;;;;;;;;;;5060282;28;20025;-72
2021/09/20 13:55:06;;;;;;;16.25;12.00;;;;;;;;;;5069424;28;20094;-72
2021/09/20 13:57:32;;;;;;;16.08;11.07;;;;;;;;;;5065784;28;20036;-72
2021/09/20 13:59:58;;;;;;;17.70;11.15;;;;;;;;;;5070186;28;20024;-72
2021/09/20 14:02:25;;;;;;;17.42;12.05;;;;;;;;;;5070589;28;20029;-72
2021/09/20 14:04:51;;;;;;;18.35;13.35;;;;;;;;;;5061406;28;20121;-73
2021/09/20 14:07:17;;;;;;;18.92;11.73;;;;;;;;;;5070904;28;20257;-72
2021/09/20 14:09:43;;;;;;;17.13;12.02;;;;;;;;;;5066977;28;20028;-72
2021/09/20 14:12:09;;;;;;;14.68;11.57;;;;;;;;;;5068647;28;20021;-72
2021/09/20 14:14:36;;;;;;;20.10;13.52;;;;;;;;;;5068823;28;20053;-72
2021/09/20 14:17:03;;;;;;;19.90;13.27;;;;;;;;;;5069083;28;20063;-73
2021/09/20 14:19:29;;;;;;;18.10;12.50;;;;;;;;;;5066793;28;20016;-72
2021/09/20 14:21:55;;;;;;;18.98;13.48;;;;;;;;;;5061693;28;20049;-72